Time,TemperatureF,DewpointF,PressureIn,WindDirection,WindDirectionDegrees,WindSpeedMPH,WindSpeedGustMPH,Humidity,HourlyPrecipIn,Conditions,Clouds,dailyrainin,SolarRadiationWatts/m^2,SoftwareType,DateUTC
2013-08-30 00:03:00,85.0,61.0,-100.00,SE,133,4.0,6.0,45,0.00,,,0.00,0.000000,,2013-08-30 05:03:00,
2013-08-30 00:42:00,86.0,60.0,-100.00,SE,135,4.0,8.0,41,0.00,,,0.00,0.000000,,2013-08-30 05:42:00,
2013-08-30 00:52:00,86.0,60.0,-100.00,SE,135,4.0,8.0,41,0.00,,,0.00,0.000000,,2013-08-30 05:52:00,
2013-08-30 01:02:00,86.0,60.0,-100.00,SE,135,4.0,8.0,41,0.00,,,0.00,0.000000,,2013-08-30 06:02:00,
2013-08-30 01:42:00,86.0,60.0,-100.00,SE,143,6.0,8.0,42,0.00,,,0.00,0.000000,,2013-08-30 06:42:00,
2013-08-30 01:53:00,86.0,60.0,-100.00,SE,143,6.0,8.0,42,0.00,,,0.00,0.000000,,2013-08-30 06:53:00,
2013-08-30 02:02:00,86.0,60.0,-100.00,SE,143,6.0,8.0,42,0.00,,,0.00,0.000000,,2013-08-30 07:02:00,
2013-08-30 02:44:00,85.0,59.0,-100.00,SSE,152,4.0,9.0,42,0.00,,,0.00,0.000000,,2013-08-30 07:44:00,
2013-08-30 02:53:00,85.0,59.0,-100.00,SSE,152,4.0,9.0,42,0.00,,,0.00,0.000000,,2013-08-30 07:53:00,
2013-08-30 03:03:00,85.0,59.0,-100.00,SSE,152,4.0,9.0,42,0.00,,,0.00,0.000000,,2013-08-30 08:03:00,
2013-08-30 03:43:00,83.0,61.0,-100.00,SE,139,7.0,10.0,47,0.00,,,0.00,0.000000,,2013-08-30 08:43:00,
2013-08-30 03:52:00,83.0,61.0,-100.00,SE,139,7.0,10.0,47,0.00,,,0.00,0.000000,,2013-08-30 08:52:00,
2013-08-30 04:01:00,83.0,61.0,-100.00,SE,139,7.0,10.0,47,0.00,,,0.00,0.000000,,2013-08-30 09:01:00,
2013-08-30 04:44:00,82.0,62.0,-100.00,SE,143,8.0,12.0,51,0.00,,,0.00,0.000000,,2013-08-30 09:44:00,
2013-08-30 04:53:00,82.0,62.0,-100.00,SE,143,8.0,12.0,51,0.00,,,0.00,0.000000,,2013-08-30 09:53:00,
2013-08-30 05:03:00,82.0,62.0,-100.00,SE,143,8.0,12.0,51,0.00,,,0.00,0.000000,,2013-08-30 10:03:00,
2013-08-30 05:43:00,80.0,62.0,-100.00,SSE,147,7.0,13.0,54,0.00,,,0.00,0.000000,,2013-08-30 10:43:00,
2013-08-30 05:53:00,80.0,62.0,-100.00,SSE,147,7.0,13.0,54,0.00,,,0.00,0.000000,,2013-08-30 10:53:00,
2013-08-30 06:03:00,80.0,62.0,-100.00,SSE,147,7.0,13.0,54,0.00,,,0.00,0.000000,,2013-08-30 11:03:00,
2013-08-30 06:42:00,81.0,64.0,-100.00,SSE,150,7.0,12.0,56,0.00,,,0.00,0.000000,,2013-08-30 11:42:00,
2013-08-30 06:52:00,81.0,64.0,-100.00,SSE,150,7.0,12.0,56,0.00,,,0.00,0.000000,,2013-08-30 11:52:00,
2013-08-30 07:01:00,81.0,64.0,-100.00,SSE,150,7.0,12.0,56,0.00,,,0.00,0.000000,,2013-08-30 12:01:00,
2013-08-30 07:42:00,80.0,62.0,-100.00,SSE,164,5.0,9.0,55,0.00,,,0.00,1.000000,,2013-08-30 12:42:00,
2013-08-30 07:52:00,80.0,62.0,-100.00,SSE,164,5.0,9.0,55,0.00,,,0.00,1.000000,,2013-08-30 12:52:00,
2013-08-30 08:02:00,80.0,62.0,-100.00,SSE,164,5.0,9.0,55,0.00,,,0.00,1.000000,,2013-08-30 13:02:00,
2013-08-30 08:42:00,80.0,64.0,-100.00,SE,136,6.0,10.0,59,0.00,,,0.00,35.000000,,2013-08-30 13:42:00,
2013-08-30 08:52:00,80.0,64.0,-100.00,SE,136,6.0,10.0,59,0.00,,,0.00,35.000000,,2013-08-30 13:52:00,
2013-08-30 09:02:00,80.0,64.0,-100.00,SE,136,6.0,10.0,59,0.00,,,0.00,35.000000,,2013-08-30 14:02:00,
2013-08-30 09:42:00,86.0,67.0,-100.00,SE,136,3.0,7.0,54,0.00,,,0.00,108.000000,,2013-08-30 14:42:00,
2013-08-30 09:52:00,86.0,67.0,-100.00,SE,136,3.0,7.0,54,0.00,,,0.00,108.000000,,2013-08-30 14:52:00,
2013-08-30 10:02:00,86.0,67.0,-100.00,SE,136,3.0,7.0,54,0.00,,,0.00,108.000000,,2013-08-30 15:02:00,
2013-08-30 10:43:00,92.0,67.0,-100.00,NW,326,3.0,8.0,44,0.00,,,0.00,462.000000,,2013-08-30 15:43:00,
2013-08-30 10:54:00,92.0,67.0,-100.00,NW,326,3.0,8.0,44,0.00,,,0.00,462.000000,,2013-08-30 15:54:00,
2013-08-30 11:05:00,92.0,67.0,-100.00,NW,326,3.0,8.0,44,0.00,,,0.00,462.000000,,2013-08-30 16:05:00,
2013-08-30 11:43:00,97.0,67.0,-100.00,NW,320,4.0,6.0,38,0.00,,,0.00,664.000000,,2013-08-30 16:43:00,
2013-08-30 11:53:00,97.0,67.0,-100.00,NW,320,4.0,6.0,38,0.00,,,0.00,664.000000,,2013-08-30 16:53:00,
2013-08-30 12:03:00,97.0,67.0,-100.00,NW,320,4.0,6.0,38,0.00,,,0.00,664.000000,,2013-08-30 17:03:00,
2013-08-30 12:42:00,101.0,65.0,-100.00,WNW,296,5.0,12.0,31,0.00,,,0.00,807.000000,,2013-08-30 17:42:00,
2013-08-30 12:53:00,101.0,65.0,-100.00,WNW,296,5.0,12.0,31,0.00,,,0.00,807.000000,,2013-08-30 17:53:00,
2013-08-30 13:02:00,101.0,65.0,-100.00,WNW,296,5.0,12.0,31,0.00,,,0.00,807.000000,,2013-08-30 18:02:00,
2013-08-30 13:42:00,102.0,62.0,-100.00,NW,317,5.0,9.0,27,0.00,,,0.00,994.000000,,2013-08-30 18:42:00,
2013-08-30 13:52:00,102.0,62.0,-100.00,NW,317,5.0,9.0,27,0.00,,,0.00,994.000000,,2013-08-30 18:52:00,
2013-08-30 14:01:00,102.0,62.0,-100.00,NW,317,5.0,9.0,27,0.00,,,0.00,994.000000,,2013-08-30 19:01:00,
2013-08-30 14:42:00,100.0,60.0,-100.00,North,355,3.0,9.0,27,0.00,,,0.00,717.000000,,2013-08-30 19:42:00,
2013-08-30 14:53:00,100.0,60.0,-100.00,North,355,3.0,9.0,27,0.00,,,0.00,717.000000,,2013-08-30 19:53:00,
2013-08-30 15:03:00,100.0,60.0,-100.00,North,355,3.0,9.0,27,0.00,,,0.00,717.000000,,2013-08-30 20:03:00,
2013-08-30 15:43:00,104.0,58.0,-100.00,SE,126,5.0,9.0,22,0.00,,,0.00,511.000000,,2013-08-30 20:43:00,
2013-08-30 15:52:00,104.0,58.0,-100.00,SE,126,5.0,9.0,22,0.00,,,0.00,511.000000,,2013-08-30 20:52:00,
2013-08-30 16:02:00,104.0,58.0,-100.00,SE,126,5.0,9.0,22,0.00,,,0.00,511.000000,,2013-08-30 21:02:00,
2013-08-30 16:44:00,104.0,60.0,-100.00,NW,326,4.0,13.0,24,0.00,,,0.00,637.000000,,2013-08-30 21:44:00,
2013-08-30 16:55:00,104.0,60.0,-100.00,NW,326,4.0,13.0,24,0.00,,,0.00,637.000000,,2013-08-30 21:55:00,
2013-08-30 17:04:00,104.0,60.0,-100.00,NW,326,4.0,13.0,24,0.00,,,0.00,637.000000,,2013-08-30 22:04:00,
2013-08-30 17:43:00,105.0,57.0,-100.00,ENE,57,5.0,11.0,21,0.00,,,0.00,593.000000,,2013-08-30 22:43:00,
2013-08-30 17:54:00,105.0,57.0,-100.00,ENE,57,5.0,11.0,21,0.00,,,0.00,593.000000,,2013-08-30 22:54:00,
2013-08-30 18:03:00,105.0,57.0,-100.00,ENE,57,5.0,11.0,21,0.00,,,0.00,593.000000,,2013-08-30 23:03:00,
2013-08-30 18:42:00,103.0,57.0,-100.00,ENE,70,4.0,10.0,22,0.00,,,0.00,460.000000,,2013-08-30 23:42:00,
2013-08-30 18:53:00,103.0,57.0,-100.00,ENE,70,4.0,10.0,22,0.00,,,0.00,460.000000,,2013-08-30 23:53:00,
2013-08-30 19:02:00,103.0,57.0,-100.00,ENE,70,4.0,10.0,22,0.00,,,0.00,460.000000,,2013-08-31 00:02:00,
2013-08-30 19:42:00,100.0,57.0,-100.00,ENE,75,3.0,11.0,24,0.00,,,0.00,235.000000,,2013-08-31 00:42:00,
2013-08-30 19:52:00,100.0,57.0,-100.00,ENE,75,3.0,11.0,24,0.00,,,0.00,235.000000,,2013-08-31 00:52:00,
2013-08-30 20:01:00,100.0,57.0,-100.00,ENE,75,3.0,11.0,24,0.00,,,0.00,235.000000,,2013-08-31 01:01:00,
2013-08-30 20:42:00,93.0,58.0,-100.00,South,169,1.0,7.0,31,0.00,,,0.00,29.000000,,2013-08-31 01:42:00,
2013-08-30 20:52:00,93.0,58.0,-100.00,South,169,1.0,7.0,31,0.00,,,0.00,29.000000,,2013-08-31 01:52:00,
2013-08-30 21:02:00,93.0,58.0,-100.00,South,169,1.0,7.0,31,0.00,,,0.00,29.000000,,2013-08-31 02:02:00,
2013-08-30 21:52:00,87.0,60.0,-100.00,SE,144,3.0,5.0,41,0.00,,,0.00,0.000000,,2013-08-31 02:52:00,
2013-08-30 22:02:00,87.0,60.0,-100.00,SE,144,3.0,5.0,41,0.00,,,0.00,0.000000,,2013-08-31 03:02:00,
2013-08-30 22:45:00,88.0,60.0,-100.00,SE,141,5.0,7.0,39,0.00,,,0.00,0.000000,,2013-08-31 03:45:00,
2013-08-30 22:54:00,88.0,60.0,-100.00,SE,141,5.0,7.0,39,0.00,,,0.00,0.000000,,2013-08-31 03:54:00,
2013-08-30 23:05:00,88.0,60.0,-100.00,SE,141,5.0,7.0,39,0.00,,,0.00,0.000000,,2013-08-31 04:05:00,
2013-08-30 23:44:00,88.0,60.0,-100.00,SE,140,6.0,9.0,39,0.00,,,0.00,0.000000,,2013-08-31 04:44:00,
2013-08-30 23:54:00,88.0,60.0,-100.00,SE,140,6.0,9.0,39,0.00,,,0.00,0.000000,,2013-08-31 04:54:00,